createdAt,value
2022-09-12T00:00:44.437Z,91.91
2022-09-12T00:03:12.365Z,92.14
2022-09-12T00:05:42.581Z,92.09
2022-09-12T00:08:09.082Z,91.83
2022-09-12T00:10:38.229Z,92.02
2022-09-12T00:13:04.782Z,91.95
2022-09-12T00:15:31.288Z,92.03
2022-09-12T00:17:57.760Z,92.07
2022-09-12T00:20:25.615Z,92.68
2022-09-12T00:22:52.106Z,92.48
2022-09-12T00:25:18.592Z,92.12
2022-09-12T00:27:45.143Z,92.64
2022-09-12T00:30:12.216Z,92.99
2022-09-12T00:32:38.737Z,93.18
2022-09-12T00:35:06.241Z,93.24
2022-09-12T00:37:34.280Z,93.09
2022-09-12T00:40:00.812Z,92.77
2022-09-12T00:42:27.375Z,92.60
2022-09-12T00:44:53.893Z,92.58
2022-09-12T00:47:23.883Z,93.00
2022-09-12T00:49:54.818Z,92.89
2022-09-12T00:52:26.511Z,92.88
2022-09-12T00:55:04.117Z,92.63
2022-09-12T00:57:34.626Z,92.81
2022-09-12T01:00:06.834Z,92.74
2022-09-12T01:02:33.854Z,92.70
2022-09-12T01:05:00.607Z,92.96
2022-09-12T01:07:27.272Z,93.05
2022-09-12T01:09:53.906Z,93.50
2022-09-12T01:12:21.888Z,93.47
2022-09-12T01:14:48.487Z,93.83
2022-09-12T01:17:15.414Z,93.67
2022-09-12T01:20:25.284Z,93.21
2022-09-12T01:23:18.551Z,93.18
2022-09-12T01:26:00.514Z,93.05
2022-09-12T01:28:56.486Z,92.88
2022-09-12T01:31:30.737Z,92.89
2022-09-12T01:34:10.200Z,92.88
2022-09-12T01:36:43.946Z,92.87
2022-09-12T01:39:18.881Z,93.04
2022-09-12T01:41:52.180Z,93.00
2022-09-12T01:44:27.842Z,93.06
2022-09-12T01:47:02.286Z,93.21
2022-09-12T01:49:35.932Z,93.19
2022-09-12T01:52:08.104Z,93.16
2022-09-12T01:54:39.356Z,93.27
2022-09-12T01:57:12.737Z,93.27
2022-09-12T01:59:43.421Z,93.38
2022-09-12T02:02:16.317Z,93.49
2022-09-12T02:04:48.585Z,93.51
2022-09-12T02:07:19.870Z,93.71
2022-09-12T02:09:50.637Z,93.30
2022-09-12T02:12:22.956Z,93.43
2022-09-12T02:14:53.918Z,93.56
2022-09-12T02:17:24.466Z,94.00
2022-09-12T02:19:54.741Z,94.00
2022-09-12T02:22:25.114Z,94.56
2022-09-12T02:24:57.278Z,94.27
2022-09-12T02:27:27.714Z,94.44
2022-09-12T02:29:54.397Z,94.29
2022-09-12T02:32:29.890Z,94.39
2022-09-12T02:35:01.062Z,94.29
2022-09-12T02:37:39.402Z,94.89
2022-09-12T02:40:07.887Z,94.43
2022-09-12T02:42:34.746Z,94.51
2022-09-12T02:45:01.784Z,94.48
2022-09-12T02:47:35.064Z,94.33
2022-09-12T02:50:02.215Z,94.35
2022-09-12T02:52:29.449Z,94.53
2022-09-12T02:54:58.004Z,94.21
2022-09-12T02:57:24.716Z,94.48
2022-09-12T02:59:53.804Z,94.61
2022-09-12T03:02:32.147Z,94.35
2022-09-12T03:05:11.629Z,94.62
2022-09-12T03:07:54.918Z,94.77
2022-09-12T03:10:28.770Z,94.33
2022-09-12T03:13:08.663Z,94.19
2022-09-12T03:15:46.466Z,94.75
2022-09-12T03:18:25.390Z,95.08
2022-09-12T03:21:00.724Z,95.13
2022-09-12T03:23:34.658Z,95.09
2022-09-12T03:26:06.431Z,95.19
2022-09-12T03:28:33.826Z,95.45
2022-09-12T03:31:00.390Z,95.28
2022-09-12T03:33:28.446Z,95.41
2022-09-12T03:35:55.560Z,95.39
2022-09-12T03:38:22.142Z,95.68
2022-09-12T03:40:54.086Z,95.76
2022-09-12T03:43:21.366Z,95.75
2022-09-12T03:45:50.431Z,95.51
2022-09-12T03:48:17.029Z,95.66
2022-09-12T03:50:44.932Z,95.59
2022-09-12T03:53:15.279Z,95.95
2022-09-12T03:55:44.026Z,95.68
2022-09-12T03:58:10.680Z,95.64
2022-09-12T04:00:38.987Z,95.76
2022-09-12T04:03:05.479Z,95.51
2022-09-12T04:05:32.079Z,95.63
2022-09-12T04:07:59.902Z,95.42
2022-09-12T04:10:26.494Z,95.45
2022-09-12T04:12:53.277Z,95.44
2022-09-12T04:15:19.933Z,95.10
2022-09-12T04:17:46.404Z,95.35
2022-09-12T04:20:13.075Z,95.36
2022-09-12T04:22:39.569Z,95.27
2022-09-12T04:25:08.874Z,95.25
2022-09-12T04:27:35.375Z,95.18
2022-09-12T04:30:01.976Z,95.37
2022-09-12T04:32:29.931Z,95.49
2022-09-12T04:34:56.819Z,95.41
2022-09-12T04:37:23.372Z,95.29
2022-09-12T04:39:50.254Z,95.38
2022-09-12T04:42:18.265Z,95.46
2022-09-12T04:44:44.872Z,95.55
2022-09-12T04:47:11.501Z,95.53
2022-09-12T04:49:38.066Z,95.41
2022-09-12T04:52:04.971Z,95.34
2022-09-12T04:54:31.505Z,95.36
2022-09-12T04:56:58.147Z,95.63
2022-09-12T04:59:26.109Z,95.52
2022-09-12T05:01:52.668Z,95.44
2022-09-12T05:04:19.274Z,95.34
2022-09-12T05:06:45.793Z,95.33
2022-09-12T05:09:13.715Z,95.39
2022-09-12T05:12:03.219Z,95.30
2022-09-12T05:14:30.274Z,95.42
2022-09-12T05:16:56.812Z,95.55
2022-09-12T05:19:23.351Z,95.59
2022-09-12T05:21:49.861Z,95.85
2022-09-12T05:24:16.610Z,95.66
2022-09-12T05:26:43.100Z,95.86
2022-09-12T05:29:09.672Z,95.99
2022-09-12T05:31:37.579Z,95.77
2022-09-12T05:34:04.170Z,95.86
2022-09-12T05:36:30.800Z,96.05
2022-09-12T05:38:59.332Z,96.29
2022-09-12T05:41:28.199Z,96.59
2022-09-12T05:43:56.908Z,96.74
2022-09-12T05:46:26.421Z,97.24
2022-09-12T05:48:56.550Z,97.42
2022-09-12T05:51:25.004Z,97.30
2022-09-12T05:53:54.314Z,97.40
2022-09-12T05:56:23.035Z,97.56
2022-09-12T05:58:54.276Z,97.81
2022-09-12T06:01:21.031Z,97.54
2022-09-12T06:03:49.436Z,98.30
2022-09-12T06:06:19.145Z,98.21
2022-09-12T06:08:47.908Z,98.18
2022-09-12T06:11:16.275Z,98.34
2022-09-12T06:13:43.575Z,98.42
2022-09-12T06:16:12.009Z,98.44
2022-09-12T06:18:39.618Z,97.95
2022-09-12T06:21:08.582Z,97.64
2022-09-12T06:23:36.768Z,97.45
2022-09-12T06:26:05.020Z,97.17
2022-09-12T06:28:32.270Z,97.00
2022-09-12T06:31:02.711Z,96.88
2022-09-12T06:33:29.290Z,96.63
2022-09-12T06:35:55.992Z,96.42
2022-09-12T06:38:22.477Z,96.05
2022-09-12T06:40:50.323Z,95.92
2022-09-12T06:43:16.855Z,95.07
2022-09-12T06:45:48.829Z,94.74
2022-09-12T06:48:15.415Z,94.33
2022-09-12T06:50:41.982Z,94.15
2022-09-12T06:53:08.581Z,94.22
2022-09-12T06:55:35.065Z,93.69
2022-09-12T06:58:03.062Z,93.91
2022-09-12T07:00:29.530Z,93.56
2022-09-12T07:02:56.080Z,93.03
2022-09-12T07:05:22.920Z,92.11
2022-09-12T07:07:49.470Z,92.06
2022-09-12T07:10:19.080Z,91.68
2022-09-12T07:12:48.668Z,91.47
2022-09-12T07:15:16.734Z,91.33
2022-09-12T07:17:43.327Z,90.49
2022-09-12T07:20:10.147Z,90.42
2022-09-12T07:22:36.680Z,90.17
2022-09-12T07:25:03.474Z,89.73
2022-09-12T07:27:30.054Z,89.85
2022-09-12T07:29:56.541Z,89.15
2022-09-12T07:32:24.537Z,88.52
2022-09-12T07:34:51.035Z,88.12
2022-09-12T07:37:17.729Z,88.08
2022-09-12T07:39:44.255Z,88.50
2022-09-12T07:42:10.813Z,88.21
2022-09-12T07:44:37.299Z,87.22
2022-09-12T07:47:04.731Z,87.15
2022-09-12T07:49:32.698Z,87.37
2022-09-12T07:51:59.292Z,87.50
2022-09-12T07:54:25.792Z,87.52
2022-09-12T07:56:52.409Z,86.99
2022-09-12T07:59:35.299Z,86.51
2022-09-12T08:02:05.590Z,86.46
2022-09-12T08:04:33.466Z,86.39
2022-09-12T08:06:59.976Z,85.36
2022-09-12T08:09:26.484Z,82.79
2022-09-12T08:11:53.061Z,83.20
2022-09-12T08:14:19.610Z,81.57
2022-09-12T08:16:46.134Z,80.02
2022-09-12T08:19:12.623Z,78.45
2022-09-12T08:21:40.619Z,78.43
2022-09-12T08:24:07.396Z,76.58
2022-09-12T08:26:37.389Z,74.20
2022-09-12T08:29:03.958Z,74.13
2022-09-12T08:31:31.336Z,73.12
2022-09-12T08:33:58.369Z,72.45
2022-09-12T08:36:26.407Z,71.54
2022-09-12T08:38:59.640Z,72.01
2022-09-12T08:41:30.172Z,72.36
2022-09-12T08:44:23.723Z,70.92
2022-09-12T08:47:06.693Z,70.06
2022-09-12T08:49:36.688Z,69.24
2022-09-12T08:52:10.287Z,70.23
2022-09-12T08:54:39.125Z,70.03
2022-09-12T08:57:08.932Z,68.99
2022-09-12T08:59:38.033Z,69.27
2022-09-12T09:02:16.557Z,69.40
2022-09-12T09:04:50.182Z,68.15
2022-09-12T09:07:45.625Z,69.93
2022-09-12T09:10:21.530Z,69.80
2022-09-12T09:12:58.179Z,68.67
2022-09-12T09:15:39.244Z,67.62
2022-09-12T09:18:14.573Z,66.76
2022-09-12T09:20:46.370Z,65.74
2022-09-12T09:23:19.190Z,65.61
2022-09-12T09:25:53.337Z,64.12
2022-09-12T09:28:23.592Z,63.62
2022-09-12T09:30:50.767Z,63.09
2022-09-12T09:33:22.070Z,63.17
2022-09-12T09:35:56.278Z,63.74
2022-09-12T09:38:29.135Z,64.41
2022-09-12T09:41:10.025Z,62.36
2022-09-12T09:43:37.872Z,62.93
2022-09-12T09:46:04.783Z,63.24
2022-09-12T09:48:34.902Z,63.16
2022-09-12T09:51:04.020Z,59.65
2022-09-12T09:53:36.972Z,59.58
2022-09-12T09:56:10.951Z,58.33
2022-09-12T09:58:37.717Z,58.41
2022-09-12T10:01:05.923Z,57.41
2022-09-12T10:03:34.155Z,56.87
2022-09-12T10:06:03.025Z,55.43
2022-09-12T10:08:31.946Z,57.05
2022-09-12T10:11:06.128Z,54.86
2022-09-12T10:13:36.832Z,55.81
2022-09-12T10:16:05.909Z,53.22
2022-09-12T10:18:39.347Z,53.56
2022-09-12T10:21:15.816Z,54.03
2022-09-12T10:23:43.414Z,52.19
2022-09-12T10:26:13.827Z,51.70
2022-09-12T10:28:42.906Z,52.81
2022-09-12T10:31:14.286Z,53.17
2022-09-12T10:33:44.165Z,53.23
2022-09-12T10:36:11.045Z,52.83
2022-09-12T10:38:38.255Z,52.22
2022-09-12T10:41:12.274Z,50.83
2022-09-12T10:43:40.617Z,50.69
2022-09-12T10:46:37.195Z,49.69
2022-09-12T10:49:24.936Z,49.98
2022-09-12T10:51:52.823Z,50.10
2022-09-12T10:54:22.077Z,47.10
2022-09-12T10:57:08.565Z,48.28
2022-09-12T10:59:56.709Z,47.23
2022-09-12T11:02:29.384Z,48.60
2022-09-12T11:05:07.826Z,48.31
2022-09-12T11:07:45.164Z,46.19
2022-09-12T11:10:35.635Z,45.54
2022-09-12T11:13:18.159Z,44.79
2022-09-12T11:15:59.892Z,45.65
2022-09-12T11:18:40.020Z,46.39
2022-09-12T11:21:20.495Z,46.07
2022-09-12T11:24:23.508Z,45.04
2022-09-12T11:27:08.735Z,45.60
2022-09-12T11:29:47.033Z,42.93
2022-09-12T11:32:37.924Z,43.19
2022-09-12T11:35:17.784Z,42.82
2022-09-12T11:37:58.157Z,42.03
2022-09-12T11:40:29.707Z,42.09
2022-09-12T11:43:01.335Z,41.03
2022-09-12T11:45:32.299Z,41.95
2022-09-12T11:48:07.216Z,42.04
2022-09-12T11:50:34.114Z,41.84
2022-09-12T11:53:09.901Z,40.87
2022-09-12T11:55:52.445Z,40.78
2022-09-12T11:58:23.189Z,40.64
2022-09-12T12:00:53.652Z,40.00
2022-09-12T12:03:28.191Z,39.53
2022-09-12T12:05:59.442Z,40.33
2022-09-12T12:08:27.205Z,41.06
2022-09-12T12:10:56.436Z,40.46
2022-09-12T12:13:27.788Z,41.48
2022-09-12T12:15:58.956Z,40.18
2022-09-12T12:18:29.319Z,40.22
2022-09-12T12:20:57.002Z,40.04
2022-09-12T12:23:29.360Z,39.27
2022-09-12T12:25:57.794Z,39.14
2022-09-12T12:28:59.307Z,38.91
2022-09-12T12:31:26.452Z,38.23
2022-09-12T12:34:02.586Z,39.38
2022-09-12T12:36:36.769Z,39.94
2022-09-12T12:39:45.280Z,37.96
2022-09-12T12:43:01.596Z,37.09
2022-09-12T12:45:59.522Z,37.51
2022-09-12T12:48:28.912Z,38.13
2022-09-12T12:51:16.607Z,37.08
2022-09-12T12:53:43.334Z,37.13
2022-09-12T12:56:27.940Z,35.39
2022-09-12T12:59:00.044Z,35.94
2022-09-12T13:01:28.514Z,36.20
2022-09-12T13:03:59.866Z,35.65
2022-09-12T13:06:33.965Z,35.04
2022-09-12T13:09:05.569Z,32.54
2022-09-12T13:11:35.504Z,34.43
2022-09-12T13:14:04.274Z,35.25
2022-09-12T13:16:36.105Z,35.34
2022-09-12T13:19:07.006Z,33.94
2022-09-12T13:21:34.901Z,33.89
2022-09-12T13:24:03.866Z,33.18
2022-09-12T13:26:35.127Z,31.78
2022-09-12T13:29:12.765Z,31.91
2022-09-12T13:31:43.176Z,32.49
2022-09-12T13:34:18.759Z,32.42
2022-09-12T13:37:16.982Z,34.18
2022-09-12T13:39:47.903Z,33.69
2022-09-12T13:42:39.377Z,33.29
2022-09-12T13:45:12.413Z,34.18
2022-09-12T13:47:42.036Z,33.56
2022-09-12T13:50:16.617Z,33.71
2022-09-12T13:52:48.402Z,34.52
2022-09-12T13:55:27.147Z,35.91
2022-09-12T13:57:57.612Z,35.19
2022-09-12T14:00:24.283Z,34.21
2022-09-12T14:02:50.952Z,33.23
2022-09-12T14:05:20.844Z,32.87
2022-09-12T14:07:54.912Z,33.62
2022-09-12T14:10:27.285Z,32.14
2022-09-12T14:12:54.706Z,32.69
2022-09-12T14:15:24.221Z,33.23
2022-09-12T14:17:52.563Z,33.60
2022-09-12T14:20:21.038Z,34.21
2022-09-12T14:22:51.037Z,33.85
2022-09-12T14:25:21.781Z,33.89
2022-09-12T14:27:52.241Z,33.94
2022-09-12T14:30:24.562Z,34.67
2022-09-12T14:33:17.929Z,34.04
2022-09-12T14:35:45.891Z,33.45
2022-09-12T14:38:22.529Z,32.94
2022-09-12T14:40:53.070Z,33.96
2022-09-12T14:43:25.685Z,34.70
2022-09-12T14:45:54.290Z,33.95
2022-09-12T14:48:21.195Z,33.86
2022-09-12T14:50:50.250Z,34.62
2022-09-12T14:53:26.334Z,33.87
2022-09-12T14:56:03.128Z,33.42
2022-09-12T14:58:29.750Z,33.90
2022-09-12T15:01:00.701Z,32.94
2022-09-12T15:03:30.812Z,33.17
2022-09-12T15:05:58.598Z,33.17
2022-09-12T15:08:26.037Z,33.38
2022-09-12T15:10:53.902Z,32.52
2022-09-12T15:13:22.530Z,33.19
2022-09-12T15:15:51.194Z,33.29
2022-09-12T15:18:19.690Z,32.98
2022-09-12T15:20:49.283Z,33.86
2022-09-12T15:23:20.117Z,33.67
2022-09-12T15:25:46.830Z,33.75
2022-09-12T15:28:18.801Z,34.08
2022-09-12T15:30:46.998Z,33.43
2022-09-12T15:33:13.502Z,34.08
2022-09-12T15:35:40.096Z,33.72
2022-09-12T15:38:06.739Z,35.09
2022-09-12T15:40:33.336Z,34.55
2022-09-12T15:43:00.090Z,34.92
2022-09-12T15:45:31.175Z,33.84
2022-09-12T15:47:59.481Z,33.86
2022-09-12T15:50:26.101Z,33.84
2022-09-12T15:52:53.033Z,33.69
2022-09-12T15:55:21.747Z,34.47
2022-09-12T15:57:48.493Z,33.86
2022-09-12T16:00:16.305Z,34.15
2022-09-12T16:02:44.843Z,34.30
2022-09-12T16:05:15.275Z,34.39
2022-09-12T16:07:42.081Z,34.54
2022-09-12T16:10:13.908Z,34.58
2022-09-12T16:12:40.497Z,35.15
2022-09-12T16:15:07.816Z,34.95
2022-09-12T16:17:34.373Z,35.30
2022-09-12T16:20:02.658Z,35.28
2022-09-12T16:22:29.240Z,35.28
2022-09-12T16:24:55.778Z,35.14
2022-09-12T16:27:22.512Z,35.68
2022-09-12T16:29:49.177Z,35.99
2022-09-12T16:32:15.839Z,36.65
2022-09-12T16:34:42.585Z,36.19
2022-09-12T16:37:10.607Z,37.97
2022-09-12T16:39:37.274Z,39.20
2022-09-12T16:42:04.390Z,39.51
2022-09-12T16:44:31.353Z,39.10
2022-09-12T16:46:57.909Z,38.84
2022-09-12T16:49:24.642Z,39.27
2022-09-12T16:51:51.306Z,38.94
2022-09-12T16:54:19.767Z,39.88
2022-09-12T16:56:46.574Z,40.09
2022-09-12T16:59:13.942Z,40.92
2022-09-12T17:01:41.157Z,40.29
2022-09-12T17:04:09.794Z,39.70
2022-09-12T17:06:36.672Z,41.49
2022-09-12T17:09:04.702Z,42.19
2022-09-12T17:11:35.011Z,43.78
2022-09-12T17:14:05.909Z,43.45
2022-09-12T17:16:34.857Z,43.80
2022-09-12T17:19:01.516Z,44.30
2022-09-12T17:21:31.142Z,44.69
2022-09-12T17:23:57.645Z,44.80
2022-09-12T17:26:24.664Z,45.37
2022-09-12T17:28:52.803Z,45.82
2022-09-12T17:31:19.663Z,45.98
2022-09-12T17:33:47.378Z,46.34
2022-09-12T17:36:16.353Z,46.76
2022-09-12T17:38:45.045Z,47.52
2022-09-12T17:41:14.697Z,48.47
2022-09-12T17:43:41.287Z,48.77
2022-09-12T17:46:09.248Z,48.96
2022-09-12T17:48:36.063Z,49.66
2022-09-12T17:51:07.216Z,49.83
2022-09-12T17:53:33.961Z,51.04
2022-09-12T17:56:01.389Z,51.83
2022-09-12T17:58:27.953Z,52.26
2022-09-12T18:01:00.518Z,52.74
2022-09-12T18:03:28.465Z,52.71
2022-09-12T18:05:56.139Z,53.34
2022-09-12T18:08:23.849Z,53.76
2022-09-12T18:10:50.992Z,54.75
2022-09-12T18:13:18.109Z,55.40
2022-09-12T18:15:44.703Z,55.75
2022-09-12T18:18:11.386Z,56.67
2022-09-12T18:20:39.242Z,56.90
2022-09-12T18:23:05.793Z,57.39
2022-09-12T18:25:32.310Z,57.71
2022-09-12T18:27:58.912Z,58.17
2022-09-12T18:30:25.416Z,58.06
2022-09-12T18:32:52.387Z,58.78
2022-09-12T18:35:18.884Z,59.16
2022-09-12T18:37:46.788Z,59.94
2022-09-12T18:40:13.386Z,60.62
2022-09-12T18:42:40.033Z,61.03
2022-09-12T18:45:07.815Z,61.78
2022-09-12T18:47:34.591Z,62.50
2022-09-12T18:50:01.066Z,63.30
2022-09-12T18:52:27.856Z,63.83
2022-09-12T18:54:55.714Z,63.96
2022-09-12T18:57:24.113Z,64.40
2022-09-12T18:59:50.618Z,64.93
2022-09-12T19:02:17.252Z,64.85
2022-09-12T19:04:44.140Z,65.47
2022-09-12T19:07:10.922Z,65.58
2022-09-12T19:09:37.439Z,66.57
2022-09-12T19:12:05.809Z,66.74
2022-09-12T19:14:32.351Z,67.14
2022-09-12T19:16:59.048Z,67.29
2022-09-12T19:19:25.534Z,67.62
2022-09-12T19:21:52.141Z,68.02
2022-09-12T19:24:19.137Z,68.17
2022-09-12T19:26:46.406Z,68.62
2022-09-12T19:29:15.068Z,68.58
2022-09-12T19:31:42.231Z,68.84
2022-09-12T19:34:11.750Z,69.13
2022-09-12T19:36:47.454Z,70.14
2022-09-12T19:39:16.440Z,70.58
2022-09-12T19:41:43.252Z,71.18
2022-09-12T19:44:10.664Z,71.45
2022-09-12T19:46:39.191Z,71.68
2022-09-12T19:49:06.106Z,71.89
2022-09-12T19:51:33.118Z,72.15
2022-09-12T19:54:00.271Z,72.50
2022-09-12T19:56:27.503Z,72.96
2022-09-12T19:58:56.567Z,73.18
2022-09-12T20:01:26.148Z,73.33
2022-09-12T20:03:54.510Z,73.45
2022-09-12T20:06:21.664Z,73.67
2022-09-12T20:08:49.030Z,74.05
2022-09-12T20:11:18.005Z,74.48
2022-09-12T20:13:45.515Z,74.60
2022-09-12T20:16:21.051Z,74.83
2022-09-12T20:18:52.846Z,75.04
2022-09-12T20:21:23.455Z,75.47
2022-09-12T20:23:52.481Z,75.70
2022-09-12T20:26:19.050Z,75.72
2022-09-12T20:28:45.857Z,75.86
2022-09-12T20:31:14.707Z,76.31
2022-09-12T20:33:42.542Z,76.36
2022-09-12T20:36:11.517Z,76.27
2022-09-12T20:38:40.333Z,76.48
2022-09-12T20:41:09.373Z,77.15
2022-09-12T20:43:36.311Z,77.36
2022-09-12T20:46:05.395Z,78.11
2022-09-12T20:48:32.785Z,78.44
2022-09-12T20:50:59.485Z,78.89
2022-09-12T20:53:30.539Z,79.25
2022-09-12T20:56:04.189Z,79.44
2022-09-12T20:58:30.852Z,79.78
2022-09-12T21:00:57.395Z,79.75
2022-09-12T21:03:24.262Z,80.09
2022-09-12T21:05:51.221Z,80.41
2022-09-12T21:08:17.948Z,80.10
2022-09-12T21:10:44.712Z,80.07
2022-09-12T21:13:13.600Z,80.12
2022-09-12T21:15:41.187Z,80.27
2022-09-12T21:18:08.422Z,80.66
2022-09-12T21:20:34.982Z,80.53
2022-09-12T21:23:01.888Z,80.36
2022-09-12T21:25:29.173Z,80.00
2022-09-12T21:27:56.408Z,80.53
2022-09-12T21:30:24.614Z,80.71
2022-09-12T21:32:51.285Z,80.74
2022-09-12T21:35:18.062Z,80.96
2022-09-12T21:37:45.241Z,80.75
2022-09-12T21:40:11.923Z,80.63
2022-09-12T21:42:38.603Z,81.08
2022-09-12T21:45:06.056Z,81.86
2022-09-12T21:47:34.246Z,82.18
2022-09-12T21:50:00.712Z,82.31
2022-09-12T21:52:27.294Z,82.36
2022-09-12T21:54:53.789Z,82.37
2022-09-12T21:57:20.677Z,82.38
2022-09-12T21:59:47.170Z,82.48
2022-09-12T22:02:13.832Z,82.71
2022-09-12T22:04:41.939Z,82.68
2022-09-12T22:07:08.824Z,83.07
2022-09-12T22:09:35.471Z,83.34
2022-09-12T22:12:02.532Z,83.07
2022-09-12T22:14:29.142Z,83.59
2022-09-12T22:16:55.701Z,83.25
2022-09-12T22:19:22.181Z,83.26
2022-09-12T22:21:50.302Z,83.05
2022-09-12T22:24:16.810Z,83.72
2022-09-12T22:26:45.536Z,83.85
2022-09-12T22:29:12.697Z,84.11
2022-09-12T22:31:39.817Z,83.82
2022-09-12T22:34:06.549Z,84.35
2022-09-12T22:36:36.963Z,84.77
2022-09-12T22:39:06.770Z,84.44
2022-09-12T22:41:33.301Z,84.88
2022-09-12T22:43:59.897Z,84.75
2022-09-12T22:46:26.520Z,85.20
2022-09-12T22:48:53.099Z,85.52
2022-09-12T22:51:19.615Z,85.86
2022-09-12T22:53:46.211Z,85.66
2022-09-12T22:56:14.055Z,85.96
2022-09-12T22:58:40.649Z,86.58
2022-09-12T23:01:08.365Z,86.26
2022-09-12T23:03:35.488Z,86.23
2022-09-12T23:06:02.289Z,86.59
2022-09-12T23:08:29.683Z,86.65
2022-09-12T23:11:04.044Z,86.89
2022-09-12T23:13:32.149Z,87.23
2022-09-12T23:15:59.151Z,86.76
2022-09-12T23:18:26.037Z,86.67
2022-09-12T23:20:59.905Z,87.05
2022-09-12T23:23:26.743Z,87.29
2022-09-12T23:26:10.174Z,87.46
2022-09-12T23:28:38.899Z,87.56
2022-09-12T23:31:06.252Z,87.92
2022-09-12T23:33:33.182Z,87.92
2022-09-12T23:36:00.595Z,88.58
2022-09-12T23:38:28.165Z,88.49
2022-09-12T23:40:54.668Z,88.59
2022-09-12T23:43:21.261Z,88.66
2022-09-12T23:45:49.297Z,88.50
2022-09-12T23:48:15.979Z,88.45
2022-09-12T23:50:43.442Z,88.32
2022-09-12T23:53:10.727Z,88.07
2022-09-12T23:55:38.779Z,88.37
2022-09-12T23:58:05.372Z,88.93
